sensor_id;sensor_type;location;lat;lon;timestamp;P1;durP1;ratioP1;P2;durP2;ratioP2
71288;SDS011;59068;52.502;9.860;2023-10-31T00:01:56;5.93;;;5.20;;
71288;SDS011;59068;52.502;9.860;2023-10-31T00:04:22;5.13;;;4.63;;
71288;SDS011;59068;52.502;9.860;2023-10-31T00:06:50;6.57;;;5.13;;
71288;SDS011;59068;52.502;9.860;2023-10-31T00:09:17;5.17;;;4.63;;
71288;SDS011;59068;52.502;9.860;2023-10-31T00:11:43;6.13;;;4.90;;
71288;SDS011;59068;52.502;9.860;2023-10-31T00:14:10;7.67;;;5.40;;
71288;SDS011;59068;52.502;9.860;2023-10-31T00:16:36;5.30;;;4.80;;
71288;SDS011;59068;52.502;9.860;2023-10-31T00:19:03;6.63;;;4.80;;
71288;SDS011;59068;52.502;9.860;2023-10-31T00:21:29;4.93;;;4.43;;
71288;SDS011;59068;52.502;9.860;2023-10-31T00:23:57;7.20;;;5.90;;
71288;SDS011;59068;52.502;9.860;2023-10-31T00:26:23;6.33;;;4.83;;
71288;SDS011;59068;52.502;9.860;2023-10-31T00:28:50;5.67;;;4.67;;
71288;SDS011;59068;52.502;9.860;2023-10-31T00:31:16;6.67;;;4.53;;
71288;SDS011;59068;52.502;9.860;2023-10-31T00:33:43;7.00;;;5.17;;
71288;SDS011;59068;52.502;9.860;2023-10-31T00:36:09;6.73;;;5.40;;
71288;SDS011;59068;52.502;9.860;2023-10-31T00:38:36;6.23;;;5.30;;
71288;SDS011;59068;52.502;9.860;2023-10-31T00:41:04;5.90;;;4.87;;
71288;SDS011;59068;52.502;9.860;2023-10-31T00:43:30;5.43;;;4.93;;
71288;SDS011;59068;52.502;9.860;2023-10-31T00:45:57;5.23;;;4.73;;
71288;SDS011;59068;52.502;9.860;2023-10-31T00:48:23;6.13;;;5.20;;
71288;SDS011;59068;52.502;9.860;2023-10-31T00:50:50;4.83;;;4.43;;
71288;SDS011;59068;52.502;9.860;2023-10-31T00:53:16;5.40;;;4.43;;
71288;SDS011;59068;52.502;9.860;2023-10-31T00:55:42;7.37;;;5.07;;
71288;SDS011;59068;52.502;9.860;2023-10-31T00:58:11;5.00;;;4.50;;
71288;SDS011;59068;52.502;9.860;2023-10-31T01:00:36;5.97;;;4.80;;
71288;SDS011;59068;52.502;9.860;2023-10-31T01:03:03;5.70;;;5.00;;
71288;SDS011;59068;52.502;9.860;2023-10-31T01:05:29;5.60;;;4.53;;
71288;SDS011;59068;52.502;9.860;2023-10-31T01:07:56;5.80;;;5.10;;
71288;SDS011;59068;52.502;9.860;2023-10-31T01:10:22;5.93;;;4.40;;
71288;SDS011;59068;52.502;9.860;2023-10-31T01:12:48;5.50;;;4.23;;
71288;SDS011;59068;52.502;9.860;2023-10-31T01:15:16;5.17;;;4.53;;
71288;SDS011;59068;52.502;9.860;2023-10-31T01:17:43;5.17;;;4.00;;
71288;SDS011;59068;52.502;9.860;2023-10-31T01:20:09;4.70;;;4.30;;
71288;SDS011;59068;52.502;9.860;2023-10-31T01:22:37;5.63;;;4.43;;
71288;SDS011;59068;52.502;9.860;2023-10-31T01:25:03;4.67;;;4.27;;
71288;SDS011;59068;52.502;9.860;2023-10-31T01:27:30;4.33;;;3.93;;
71288;SDS011;59068;52.502;9.860;2023-10-31T01:29:56;4.27;;;3.83;;
71288;SDS011;59068;52.502;9.860;2023-10-31T01:32:24;6.03;;;3.87;;
71288;SDS011;59068;52.502;9.860;2023-10-31T01:34:51;4.77;;;3.83;;
71288;SDS011;59068;52.502;9.860;2023-10-31T01:37:17;5.43;;;3.50;;
71288;SDS011;59068;52.502;9.860;2023-10-31T01:39:44;4.00;;;3.40;;
71288;SDS011;59068;52.502;9.860;2023-10-31T01:42:13;5.07;;;3.53;;
71288;SDS011;59068;52.502;9.860;2023-10-31T01:44:39;4.10;;;3.10;;
71288;SDS011;59068;52.502;9.860;2023-10-31T01:47:06;5.10;;;3.80;;
71288;SDS011;59068;52.502;9.860;2023-10-31T01:49:34;3.37;;;3.07;;
71288;SDS011;59068;52.502;9.860;2023-10-31T01:52:00;3.80;;;3.50;;
71288;SDS011;59068;52.502;9.860;2023-10-31T01:54:27;4.40;;;3.57;;
71288;SDS011;59068;52.502;9.860;2023-10-31T01:56:54;3.83;;;3.13;;
71288;SDS011;59068;52.502;9.860;2023-10-31T01:59:22;4.57;;;3.03;;
71288;SDS011;59068;52.502;9.860;2023-10-31T02:01:49;5.27;;;3.43;;
71288;SDS011;59068;52.502;9.860;2023-10-31T02:04:16;3.50;;;3.10;;
71288;SDS011;59068;52.502;9.860;2023-10-31T02:06:43;3.73;;;3.30;;
71288;SDS011;59068;52.502;9.860;2023-10-31T02:09:10;5.10;;;3.30;;
71288;SDS011;59068;52.502;9.860;2023-10-31T02:11:37;4.63;;;3.50;;
71288;SDS011;59068;52.502;9.860;2023-10-31T02:14:03;4.60;;;3.47;;
71288;SDS011;59068;52.502;9.860;2023-10-31T02:16:29;3.97;;;3.13;;
71288;SDS011;59068;52.502;9.860;2023-10-31T02:18:56;4.37;;;3.30;;
71288;SDS011;59068;52.502;9.860;2023-10-31T02:21:22;4.77;;;3.47;;
71288;SDS011;59068;52.502;9.860;2023-10-31T02:23:59;4.00;;;3.47;;
71288;SDS011;59068;52.502;9.860;2023-10-31T02:26:28;3.37;;;3.07;;
71288;SDS011;59068;52.502;9.860;2023-10-31T02:28:54;3.40;;;3.13;;
71288;SDS011;59068;52.502;9.860;2023-10-31T02:31:21;5.13;;;3.33;;
71288;SDS011;59068;52.502;9.860;2023-10-31T02:33:48;4.67;;;3.53;;
71288;SDS011;59068;52.502;9.860;2023-10-31T02:36:14;5.53;;;3.07;;
71288;SDS011;59068;52.502;9.860;2023-10-31T02:38:41;3.87;;;3.17;;
71288;SDS011;59068;52.502;9.860;2023-10-31T02:41:08;3.73;;;3.10;;
71288;SDS011;59068;52.502;9.860;2023-10-31T02:43:35;3.27;;;2.97;;
71288;SDS011;59068;52.502;9.860;2023-10-31T02:46:01;3.93;;;3.53;;
71288;SDS011;59068;52.502;9.860;2023-10-31T02:48:28;3.80;;;3.40;;
71288;SDS011;59068;52.502;9.860;2023-10-31T02:50:56;3.93;;;3.30;;
71288;SDS011;59068;52.502;9.860;2023-10-31T02:53:23;3.33;;;3.03;;
71288;SDS011;59068;52.502;9.860;2023-10-31T02:55:49;4.13;;;3.30;;
71288;SDS011;59068;52.502;9.860;2023-10-31T02:58:17;3.93;;;3.00;;
71288;SDS011;59068;52.502;9.860;2023-10-31T03:00:44;3.20;;;2.90;;
71288;SDS011;59068;52.502;9.860;2023-10-31T03:03:11;3.37;;;3.07;;
71288;SDS011;59068;52.502;9.860;2023-10-31T03:05:37;3.57;;;3.07;;
71288;SDS011;59068;52.502;9.860;2023-10-31T03:08:03;3.50;;;3.23;;
71288;SDS011;59068;52.502;9.860;2023-10-31T03:10:30;3.70;;;3.40;;
71288;SDS011;59068;52.502;9.860;2023-10-31T03:12:56;3.27;;;2.97;;
71288;SDS011;59068;52.502;9.860;2023-10-31T03:15:25;4.20;;;3.20;;
71288;SDS011;59068;52.502;9.860;2023-10-31T03:17:52;3.20;;;2.90;;
71288;SDS011;59068;52.502;9.860;2023-10-31T03:20:19;3.87;;;3.07;;
71288;SDS011;59068;52.502;9.860;2023-10-31T03:22:45;3.60;;;2.57;;
71288;SDS011;59068;52.502;9.860;2023-10-31T03:25:11;3.67;;;3.10;;
71288;SDS011;59068;52.502;9.860;2023-10-31T03:27:38;4.90;;;2.90;;
71288;SDS011;59068;52.502;9.860;2023-10-31T03:30:04;3.33;;;2.67;;
71288;SDS011;59068;52.502;9.860;2023-10-31T03:32:32;4.17;;;2.47;;
71288;SDS011;59068;52.502;9.860;2023-10-31T03:34:59;2.87;;;2.57;;
71288;SDS011;59068;52.502;9.860;2023-10-31T03:37:25;3.10;;;2.90;;
71288;SDS011;59068;52.502;9.860;2023-10-31T03:39:52;4.57;;;2.30;;
71288;SDS011;59068;52.502;9.860;2023-10-31T03:42:18;3.30;;;2.90;;
71288;SDS011;59068;52.502;9.860;2023-10-31T03:44:44;2.47;;;2.20;;
71288;SDS011;59068;52.502;9.860;2023-10-31T03:47:11;2.70;;;2.50;;
71288;SDS011;59068;52.502;9.860;2023-10-31T03:49:39;3.07;;;2.13;;
71288;SDS011;59068;52.502;9.860;2023-10-31T03:52:05;2.97;;;2.73;;
71288;SDS011;59068;52.502;9.860;2023-10-31T03:54:32;2.30;;;2.10;;
71288;SDS011;59068;52.502;9.860;2023-10-31T03:56:58;2.40;;;2.20;;
71288;SDS011;59068;52.502;9.860;2023-10-31T03:59:25;3.13;;;2.80;;
71288;SDS011;59068;52.502;9.860;2023-10-31T04:01:51;2.40;;;2.30;;
71288;SDS011;59068;52.502;9.860;2023-10-31T04:04:18;3.77;;;3.47;;
71288;SDS011;59068;52.502;9.860;2023-10-31T04:06:46;4.60;;;4.20;;
71288;SDS011;59068;52.502;9.860;2023-10-31T04:09:12;6.30;;;5.80;;
71288;SDS011;59068;52.502;9.860;2023-10-31T04:11:39;6.60;;;6.10;;
71288;SDS011;59068;52.502;9.860;2023-10-31T04:14:06;7.87;;;7.27;;
71288;SDS011;59068;52.502;9.860;2023-10-31T04:16:38;7.53;;;6.83;;
71288;SDS011;59068;52.502;9.860;2023-10-31T04:19:05;5.43;;;5.03;;
71288;SDS011;59068;52.502;9.860;2023-10-31T04:21:31;6.60;;;5.93;;
71288;SDS011;59068;52.502;9.860;2023-10-31T04:23:59;6.20;;;5.63;;
71288;SDS011;59068;52.502;9.860;2023-10-31T04:26:26;5.33;;;4.93;;
71288;SDS011;59068;52.502;9.860;2023-10-31T04:28:53;6.10;;;3.90;;
71288;SDS011;59068;52.502;9.860;2023-10-31T04:31:19;3.67;;;3.37;;
71288;SDS011;59068;52.502;9.860;2023-10-31T04:33:45;4.50;;;4.10;;
71288;SDS011;59068;52.502;9.860;2023-10-31T04:36:12;4.20;;;3.90;;
71288;SDS011;59068;52.502;9.860;2023-10-31T04:38:38;3.27;;;3.03;;
71288;SDS011;59068;52.502;9.860;2023-10-31T04:41:07;3.00;;;2.47;;
71288;SDS011;59068;52.502;9.860;2023-10-31T04:43:34;4.77;;;3.10;;
71288;SDS011;59068;52.502;9.860;2023-10-31T04:46:01;2.53;;;2.33;;
71288;SDS011;59068;52.502;9.860;2023-10-31T04:48:27;2.37;;;2.17;;
71288;SDS011;59068;52.502;9.860;2023-10-31T04:50:54;2.53;;;2.33;;
71288;SDS011;59068;52.502;9.860;2023-10-31T04:53:21;2.27;;;1.93;;
71288;SDS011;59068;52.502;9.860;2023-10-31T04:55:48;1.70;;;1.60;;
71288;SDS011;59068;52.502;9.860;2023-10-31T04:58:15;1.43;;;1.33;;
71288;SDS011;59068;52.502;9.860;2023-10-31T05:00:42;1.07;;;1.00;;
71288;SDS011;59068;52.502;9.860;2023-10-31T05:03:09;1.10;;;0.97;;
71288;SDS011;59068;52.502;9.860;2023-10-31T05:05:35;0.30;;;0.30;;
71288;SDS011;59068;52.502;9.860;2023-10-31T05:08:02;0.50;;;0.50;;
71288;SDS011;59068;52.502;9.860;2023-10-31T05:10:29;0.30;;;0.30;;
71288;SDS011;59068;52.502;9.860;2023-10-31T05:12:55;0.13;;;0.10;;
71288;SDS011;59068;52.502;9.860;2023-10-31T05:15:23;0.30;;;0.10;;
71288;SDS011;59068;52.502;9.860;2023-10-31T05:17:50;1.70;;;0.33;;
71288;SDS011;59068;52.502;9.860;2023-10-31T05:20:16;0.17;;;0.13;;
71288;SDS011;59068;52.502;9.860;2023-10-31T05:22:42;0.33;;;0.10;;
71288;SDS011;59068;52.502;9.860;2023-10-31T05:25:09;0.10;;;0.10;;
71288;SDS011;59068;52.502;9.860;2023-10-31T05:27:35;0.20;;;0.20;;
71288;SDS011;59068;52.502;9.860;2023-10-31T05:30:02;1.30;;;0.20;;
71288;SDS011;59068;52.502;9.860;2023-10-31T05:32:31;0.20;;;0.10;;
71288;SDS011;59068;52.502;9.860;2023-10-31T05:34:57;0.10;;;0.10;;
71288;SDS011;59068;52.502;9.860;2023-10-31T05:37:23;0.10;;;0.10;;
71288;SDS011;59068;52.502;9.860;2023-10-31T05:39:50;0.00;;;0.00;;
71288;SDS011;59068;52.502;9.860;2023-10-31T05:42:17;0.13;;;0.10;;
71288;SDS011;59068;52.502;9.860;2023-10-31T05:44:45;0.50;;;0.10;;
71288;SDS011;59068;52.502;9.860;2023-10-31T05:47:12;0.97;;;0.03;;
71288;SDS011;59068;52.502;9.860;2023-10-31T05:49:40;0.37;;;0.00;;
71288;SDS011;59068;52.502;9.860;2023-10-31T05:52:08;0.00;;;0.00;;
71288;SDS011;59068;52.502;9.860;2023-10-31T05:54:34;0.57;;;0.10;;
71288;SDS011;59068;52.502;9.860;2023-10-31T05:57:01;0.00;;;0.00;;
71288;SDS011;59068;52.502;9.860;2023-10-31T05:59:27;0.43;;;0.00;;
71288;SDS011;59068;52.502;9.860;2023-10-31T06:01:53;2.83;;;0.17;;
71288;SDS011;59068;52.502;9.860;2023-10-31T06:04:20;0.30;;;0.10;;
71288;SDS011;59068;52.502;9.860;2023-10-31T06:06:48;0.10;;;0.10;;
71288;SDS011;59068;52.502;9.860;2023-10-31T06:09:14;0.73;;;0.30;;
71288;SDS011;59068;52.502;9.860;2023-10-31T06:11:42;0.10;;;0.10;;
71288;SDS011;59068;52.502;9.860;2023-10-31T06:14:09;0.80;;;0.10;;
71288;SDS011;59068;52.502;9.860;2023-10-31T06:16:39;0.73;;;0.23;;
71288;SDS011;59068;52.502;9.860;2023-10-31T06:19:05;0.20;;;0.20;;
71288;SDS011;59068;52.502;9.860;2023-10-31T06:21:32;0.33;;;0.20;;
71288;SDS011;59068;52.502;9.860;2023-10-31T06:24:00;0.40;;;0.30;;
71288;SDS011;59068;52.502;9.860;2023-10-31T06:26:26;1.17;;;0.60;;
71288;SDS011;59068;52.502;9.860;2023-10-31T06:28:53;0.30;;;0.30;;
71288;SDS011;59068;52.502;9.860;2023-10-31T06:31:20;0.60;;;0.50;;
71288;SDS011;59068;52.502;9.860;2023-10-31T06:33:47;0.87;;;0.87;;
71288;SDS011;59068;52.502;9.860;2023-10-31T06:36:13;0.60;;;0.60;;
71288;SDS011;59068;52.502;9.860;2023-10-31T06:38:40;0.97;;;0.80;;
71288;SDS011;59068;52.502;9.860;2023-10-31T06:41:08;1.87;;;0.80;;
71288;SDS011;59068;52.502;9.860;2023-10-31T06:43:34;1.53;;;1.00;;
71288;SDS011;59068;52.502;9.860;2023-10-31T06:46:01;1.20;;;1.00;;
71288;SDS011;59068;52.502;9.860;2023-10-31T06:48:29;2.47;;;1.10;;
71288;SDS011;59068;52.502;9.860;2023-10-31T06:50:55;1.10;;;1.03;;
71288;SDS011;59068;52.502;9.860;2023-10-31T06:53:22;1.27;;;1.17;;
71288;SDS011;59068;52.502;9.860;2023-10-31T06:55:48;0.90;;;0.90;;
71288;SDS011;59068;52.502;9.860;2023-10-31T06:58:16;2.43;;;1.50;;
71288;SDS011;59068;52.502;9.860;2023-10-31T07:00:42;2.23;;;1.60;;
71288;SDS011;59068;52.502;9.860;2023-10-31T07:03:09;1.60;;;1.50;;
71288;SDS011;59068;52.502;9.860;2023-10-31T07:05:40;1.70;;;1.30;;
71288;SDS011;59068;52.502;9.860;2023-10-31T07:08:06;1.87;;;1.47;;
71288;SDS011;59068;52.502;9.860;2023-10-31T07:10:33;2.07;;;1.20;;
71288;SDS011;59068;52.502;9.860;2023-10-31T07:12:59;1.63;;;1.43;;
71288;SDS011;59068;52.502;9.860;2023-10-31T07:15:27;2.10;;;1.83;;
71288;SDS011;59068;52.502;9.860;2023-10-31T07:17:54;2.57;;;1.73;;
71288;SDS011;59068;52.502;9.860;2023-10-31T07:20:20;1.23;;;1.10;;
71288;SDS011;59068;52.502;9.860;2023-10-31T07:22:47;1.77;;;1.57;;
71288;SDS011;59068;52.502;9.860;2023-10-31T07:25:13;2.03;;;1.30;;
71288;SDS011;59068;52.502;9.860;2023-10-31T07:27:40;2.17;;;1.07;;
71288;SDS011;59068;52.502;9.860;2023-10-31T07:30:06;1.50;;;1.40;;
71288;SDS011;59068;52.502;9.860;2023-10-31T07:32:34;1.40;;;1.30;;
71288;SDS011;59068;52.502;9.860;2023-10-31T07:35:01;1.53;;;1.30;;
71288;SDS011;59068;52.502;9.860;2023-10-31T07:37:27;1.93;;;1.43;;
71288;SDS011;59068;52.502;9.860;2023-10-31T07:39:54;1.40;;;1.30;;
71288;SDS011;59068;52.502;9.860;2023-10-31T07:42:20;2.33;;;1.10;;
71288;SDS011;59068;52.502;9.860;2023-10-31T07:44:47;1.37;;;1.23;;
71288;SDS011;59068;52.502;9.860;2023-10-31T07:47:14;2.10;;;1.53;;
71288;SDS011;59068;52.502;9.860;2023-10-31T07:49:42;1.63;;;1.53;;
71288;SDS011;59068;52.502;9.860;2023-10-31T07:52:09;1.53;;;1.20;;
71288;SDS011;59068;52.502;9.860;2023-10-31T07:54:38;1.60;;;1.10;;
71288;SDS011;59068;52.502;9.860;2023-10-31T07:57:05;1.20;;;1.10;;
71288;SDS011;59068;52.502;9.860;2023-10-31T07:59:32;1.37;;;1.27;;
71288;SDS011;59068;52.502;9.860;2023-10-31T08:01:59;1.67;;;1.10;;
71288;SDS011;59068;52.502;9.860;2023-10-31T08:04:25;2.30;;;1.63;;
71288;SDS011;59068;52.502;9.860;2023-10-31T08:06:54;1.60;;;1.20;;
71288;SDS011;59068;52.502;9.860;2023-10-31T08:09:21;2.53;;;1.47;;
71288;SDS011;59068;52.502;9.860;2023-10-31T08:11:47;2.43;;;1.53;;
71288;SDS011;59068;52.502;9.860;2023-10-31T08:14:13;1.77;;;1.03;;
71288;SDS011;59068;52.502;9.860;2023-10-31T08:16:40;2.53;;;1.07;;
71288;SDS011;59068;52.502;9.860;2023-10-31T08:19:07;1.77;;;1.23;;
71288;SDS011;59068;52.502;9.860;2023-10-31T08:21:33;2.40;;;1.10;;
71288;SDS011;59068;52.502;9.860;2023-10-31T08:24:02;1.83;;;1.33;;
71288;SDS011;59068;52.502;9.860;2023-10-31T08:26:29;3.40;;;1.40;;
71288;SDS011;59068;52.502;9.860;2023-10-31T08:28:55;1.70;;;1.60;;
71288;SDS011;59068;52.502;9.860;2023-10-31T08:31:22;1.70;;;1.10;;
71288;SDS011;59068;52.502;9.860;2023-10-31T08:33:48;0.90;;;0.80;;
71288;SDS011;59068;52.502;9.860;2023-10-31T08:36:15;2.40;;;1.20;;
71288;SDS011;59068;52.502;9.860;2023-10-31T08:38:41;1.27;;;1.07;;
71288;SDS011;59068;52.502;9.860;2023-10-31T08:41:09;1.00;;;1.00;;
71288;SDS011;59068;52.502;9.860;2023-10-31T08:43:35;0.90;;;0.90;;
71288;SDS011;59068;52.502;9.860;2023-10-31T08:46:02;2.50;;;1.10;;
71288;SDS011;59068;52.502;9.860;2023-10-31T08:48:29;1.83;;;1.17;;
71288;SDS011;59068;52.502;9.860;2023-10-31T08:50:55;1.70;;;1.00;;
71288;SDS011;59068;52.502;9.860;2023-10-31T08:53:22;1.93;;;0.90;;
71288;SDS011;59068;52.502;9.860;2023-10-31T08:55:48;3.73;;;1.00;;
71288;SDS011;59068;52.502;9.860;2023-10-31T08:58:16;1.10;;;0.97;;
71288;SDS011;59068;52.502;9.860;2023-10-31T09:00:43;1.07;;;0.63;;
71288;SDS011;59068;52.502;9.860;2023-10-31T09:03:10;1.80;;;0.80;;
71288;SDS011;59068;52.502;9.860;2023-10-31T09:05:36;1.40;;;0.77;;
71288;SDS011;59068;52.502;9.860;2023-10-31T09:08:02;1.07;;;0.43;;
71288;SDS011;59068;52.502;9.860;2023-10-31T09:10:30;0.80;;;0.80;;
71288;SDS011;59068;52.502;9.860;2023-10-31T09:12:57;1.63;;;0.70;;
71288;SDS011;59068;52.502;9.860;2023-10-31T09:15:24;1.47;;;0.80;;
71288;SDS011;59068;52.502;9.860;2023-10-31T09:17:51;0.90;;;0.50;;
71288;SDS011;59068;52.502;9.860;2023-10-31T09:20:17;0.57;;;0.57;;
71288;SDS011;59068;52.502;9.860;2023-10-31T09:22:44;0.50;;;0.50;;
71288;SDS011;59068;52.502;9.860;2023-10-31T09:25:10;0.80;;;0.60;;
71288;SDS011;59068;52.502;9.860;2023-10-31T09:27:37;0.70;;;0.70;;
71288;SDS011;59068;52.502;9.860;2023-10-31T09:30:05;0.53;;;0.53;;
71288;SDS011;59068;52.502;9.860;2023-10-31T09:32:34;0.67;;;0.57;;
71288;SDS011;59068;52.502;9.860;2023-10-31T09:35:00;3.50;;;0.60;;
71288;SDS011;59068;52.502;9.860;2023-10-31T09:37:27;1.00;;;0.70;;
71288;SDS011;59068;52.502;9.860;2023-10-31T09:39:53;1.13;;;0.97;;
71288;SDS011;59068;52.502;9.860;2023-10-31T09:42:21;0.80;;;0.80;;
71288;SDS011;59068;52.502;9.860;2023-10-31T09:44:47;1.00;;;0.90;;
71288;SDS011;59068;52.502;9.860;2023-10-31T09:47:14;1.13;;;0.97;;
71288;SDS011;59068;52.502;9.860;2023-10-31T09:49:43;2.10;;;1.10;;
71288;SDS011;59068;52.502;9.860;2023-10-31T09:52:10;0.83;;;0.83;;
71288;SDS011;59068;52.502;9.860;2023-10-31T09:54:37;1.07;;;0.90;;
71288;SDS011;59068;52.502;9.860;2023-10-31T09:57:04;0.70;;;0.70;;
71288;SDS011;59068;52.502;9.860;2023-10-31T09:59:31;0.83;;;0.83;;
71288;SDS011;59068;52.502;9.860;2023-10-31T10:01:57;0.87;;;0.87;;
71288;SDS011;59068;52.502;9.860;2023-10-31T10:04:24;1.30;;;1.20;;
71288;SDS011;59068;52.502;9.860;2023-10-31T10:06:52;0.90;;;0.90;;
71288;SDS011;59068;52.502;9.860;2023-10-31T10:09:24;1.37;;;1.00;;
71288;SDS011;59068;52.502;9.860;2023-10-31T10:11:51;1.33;;;1.17;;
71288;SDS011;59068;52.502;9.860;2023-10-31T10:14:18;1.67;;;1.40;;
71288;SDS011;59068;52.502;9.860;2023-10-31T10:16:44;0.73;;;0.73;;
71288;SDS011;59068;52.502;9.860;2023-10-31T10:19:14;0.70;;;0.70;;
71288;SDS011;59068;52.502;9.860;2023-10-31T10:21:47;0.60;;;0.60;;
71288;SDS011;59068;52.502;9.860;2023-10-31T10:24:16;0.40;;;0.40;;
71288;SDS011;59068;52.502;9.860;2023-10-31T10:26:43;0.60;;;0.60;;
71288;SDS011;59068;52.502;9.860;2023-10-31T10:29:09;0.50;;;0.50;;
71288;SDS011;59068;52.502;9.860;2023-10-31T10:31:36;0.60;;;0.60;;
71288;SDS011;59068;52.502;9.860;2023-10-31T10:34:02;2.07;;;0.90;;
71288;SDS011;59068;52.502;9.860;2023-10-31T10:36:29;0.87;;;0.50;;
71288;SDS011;59068;52.502;9.860;2023-10-31T10:38:58;1.03;;;0.20;;
71288;SDS011;59068;52.502;9.860;2023-10-31T10:41:27;0.47;;;0.20;;
71288;SDS011;59068;52.502;9.860;2023-10-31T10:43:55;1.37;;;0.30;;
71288;SDS011;59068;52.502;9.860;2023-10-31T10:46:23;1.97;;;0.50;;
71288;SDS011;59068;52.502;9.860;2023-10-31T10:48:51;0.40;;;0.40;;
71288;SDS011;59068;52.502;9.860;2023-10-31T10:51:27;0.90;;;0.40;;
71288;SDS011;59068;52.502;9.860;2023-10-31T10:53:57;0.40;;;0.40;;
71288;SDS011;59068;52.502;9.860;2023-10-31T10:56:28;0.60;;;0.60;;
71288;SDS011;59068;52.502;9.860;2023-10-31T10:58:59;0.60;;;0.60;;
71288;SDS011;59068;52.502;9.860;2023-10-31T11:01:28;0.70;;;0.70;;
71288;SDS011;59068;52.502;9.860;2023-10-31T11:03:55;0.87;;;0.70;;
71288;SDS011;59068;52.502;9.860;2023-10-31T11:06:21;1.63;;;0.93;;
71288;SDS011;59068;52.502;9.860;2023-10-31T11:08:49;1.23;;;0.83;;
71288;SDS011;59068;52.502;9.860;2023-10-31T11:11:15;1.03;;;1.03;;
71288;SDS011;59068;52.502;9.860;2023-10-31T11:13:44;1.00;;;1.00;;
71288;SDS011;59068;52.502;9.860;2023-10-31T11:16:13;1.30;;;1.00;;
71288;SDS011;59068;52.502;9.860;2023-10-31T11:18:43;1.00;;;1.00;;
71288;SDS011;59068;52.502;9.860;2023-10-31T11:21:10;1.20;;;1.10;;
71288;SDS011;59068;52.502;9.860;2023-10-31T11:23:37;1.27;;;1.17;;
71288;SDS011;59068;52.502;9.860;2023-10-31T11:26:06;1.43;;;1.33;;
71288;SDS011;59068;52.502;9.860;2023-10-31T11:28:33;2.20;;;1.47;;
71288;SDS011;59068;52.502;9.860;2023-10-31T11:31:02;1.97;;;1.30;;
71288;SDS011;59068;52.502;9.860;2023-10-31T11:33:30;1.43;;;1.23;;
71288;SDS011;59068;52.502;9.860;2023-10-31T11:36:00;1.07;;;1.00;;
71288;SDS011;59068;52.502;9.860;2023-10-31T11:38:31;2.07;;;1.17;;
71288;SDS011;59068;52.502;9.860;2023-10-31T11:40:59;3.07;;;1.10;;
71288;SDS011;59068;52.502;9.860;2023-10-31T11:43:34;1.23;;;1.10;;
71288;SDS011;59068;52.502;9.860;2023-10-31T11:46:03;1.43;;;1.33;;
71288;SDS011;59068;52.502;9.860;2023-10-31T11:48:44;1.30;;;1.20;;
71288;SDS011;59068;52.502;9.860;2023-10-31T11:51:11;1.40;;;1.03;;
71288;SDS011;59068;52.502;9.860;2023-10-31T11:53:40;1.30;;;1.20;;
71288;SDS011;59068;52.502;9.860;2023-10-31T11:56:08;1.57;;;1.10;;
71288;SDS011;59068;52.502;9.860;2023-10-31T11:58:35;1.90;;;0.90;;
71288;SDS011;59068;52.502;9.860;2023-10-31T12:01:04;1.00;;;0.83;;
71288;SDS011;59068;52.502;9.860;2023-10-31T12:03:36;2.43;;;1.27;;
71288;SDS011;59068;52.502;9.860;2023-10-31T12:06:03;2.63;;;1.00;;
71288;SDS011;59068;52.502;9.860;2023-10-31T12:08:31;1.27;;;1.00;;
71288;SDS011;59068;52.502;9.860;2023-10-31T12:11:05;1.33;;;1.13;;
71288;SDS011;59068;52.502;9.860;2023-10-31T12:13:32;0.83;;;0.63;;
71288;SDS011;59068;52.502;9.860;2023-10-31T12:15:59;1.77;;;1.03;;
71288;SDS011;59068;52.502;9.860;2023-10-31T12:18:27;1.10;;;1.00;;
71288;SDS011;59068;52.502;9.860;2023-10-31T12:20:54;1.13;;;1.00;;
71288;SDS011;59068;52.502;9.860;2023-10-31T12:23:21;0.70;;;0.70;;
71288;SDS011;59068;52.502;9.860;2023-10-31T12:25:48;1.57;;;0.90;;
71288;SDS011;59068;52.502;9.860;2023-10-31T12:28:18;1.00;;;0.90;;
71288;SDS011;59068;52.502;9.860;2023-10-31T12:30:45;0.60;;;0.60;;
71288;SDS011;59068;52.502;9.860;2023-10-31T12:33:13;0.43;;;0.43;;
71288;SDS011;59068;52.502;9.860;2023-10-31T12:35:41;0.70;;;0.70;;
71288;SDS011;59068;52.502;9.860;2023-10-31T12:38:09;0.70;;;0.60;;
71288;SDS011;59068;52.502;9.860;2023-10-31T12:40:36;0.70;;;0.70;;
71288;SDS011;59068;52.502;9.860;2023-10-31T12:43:04;1.63;;;0.80;;
71288;SDS011;59068;52.502;9.860;2023-10-31T12:45:31;2.67;;;1.20;;
71288;SDS011;59068;52.502;9.860;2023-10-31T12:48:01;0.60;;;0.60;;
71288;SDS011;59068;52.502;9.860;2023-10-31T12:50:29;0.70;;;0.70;;
71288;SDS011;59068;52.502;9.860;2023-10-31T12:52:58;0.80;;;0.80;;
71288;SDS011;59068;52.502;9.860;2023-10-31T12:55:25;0.80;;;0.80;;
71288;SDS011;59068;52.502;9.860;2023-10-31T12:57:54;1.60;;;0.90;;
71288;SDS011;59068;52.502;9.860;2023-10-31T13:00:21;1.03;;;0.70;;
71288;SDS011;59068;52.502;9.860;2023-10-31T13:02:51;0.80;;;0.70;;
71288;SDS011;59068;52.502;9.860;2023-10-31T13:05:17;1.43;;;0.70;;
71288;SDS011;59068;52.502;9.860;2023-10-31T13:07:47;1.70;;;0.50;;
71288;SDS011;59068;52.502;9.860;2023-10-31T13:10:16;0.77;;;0.60;;
71288;SDS011;59068;52.502;9.860;2023-10-31T13:12:43;1.40;;;0.60;;
71288;SDS011;59068;52.502;9.860;2023-10-31T13:15:11;1.60;;;0.70;;
71288;SDS011;59068;52.502;9.860;2023-10-31T13:17:41;1.97;;;0.60;;
71288;SDS011;59068;52.502;9.860;2023-10-31T13:20:09;1.07;;;0.57;;
71288;SDS011;59068;52.502;9.860;2023-10-31T13:22:36;1.13;;;0.70;;
71288;SDS011;59068;52.502;9.860;2023-10-31T13:25:02;1.20;;;0.90;;
71288;SDS011;59068;52.502;9.860;2023-10-31T13:27:31;1.70;;;0.90;;
71288;SDS011;59068;52.502;9.860;2023-10-31T13:30:01;0.70;;;0.70;;
71288;SDS011;59068;52.502;9.860;2023-10-31T13:32:28;2.73;;;0.90;;
71288;SDS011;59068;52.502;9.860;2023-10-31T13:34:55;0.80;;;0.80;;
71288;SDS011;59068;52.502;9.860;2023-10-31T13:37:31;3.13;;;1.23;;
71288;SDS011;59068;52.502;9.860;2023-10-31T13:40:00;1.03;;;0.77;;
71288;SDS011;59068;52.502;9.860;2023-10-31T13:42:27;0.63;;;0.60;;
71288;SDS011;59068;52.502;9.860;2023-10-31T13:44:55;1.37;;;0.77;;
71288;SDS011;59068;52.502;9.860;2023-10-31T13:47:22;0.70;;;0.70;;
71288;SDS011;59068;52.502;9.860;2023-10-31T13:49:48;1.67;;;0.60;;
71288;SDS011;59068;52.502;9.860;2023-10-31T13:52:15;1.17;;;0.60;;
71288;SDS011;59068;52.502;9.860;2023-10-31T13:54:41;0.70;;;0.70;;
71288;SDS011;59068;52.502;9.860;2023-10-31T13:57:08;0.90;;;0.50;;
71288;SDS011;59068;52.502;9.860;2023-10-31T13:59:35;0.77;;;0.60;;
71288;SDS011;59068;52.502;9.860;2023-10-31T14:02:03;1.60;;;0.60;;
71288;SDS011;59068;52.502;9.860;2023-10-31T14:04:30;0.80;;;0.70;;
71288;SDS011;59068;52.502;9.860;2023-10-31T14:06:57;0.90;;;0.80;;
71288;SDS011;59068;52.502;9.860;2023-10-31T14:09:24;1.53;;;0.70;;
71288;SDS011;59068;52.502;9.860;2023-10-31T14:11:50;1.03;;;0.70;;
71288;SDS011;59068;52.502;9.860;2023-10-31T14:14:16;0.60;;;0.60;;
71288;SDS011;59068;52.502;9.860;2023-10-31T14:16:44;0.90;;;0.50;;
71288;SDS011;59068;52.502;9.860;2023-10-31T14:19:12;0.50;;;0.50;;
71288;SDS011;59068;52.502;9.860;2023-10-31T14:21:39;1.80;;;0.77;;
71288;SDS011;59068;52.502;9.860;2023-10-31T14:24:07;0.60;;;0.50;;
71288;SDS011;59068;52.502;9.860;2023-10-31T14:26:34;0.60;;;0.60;;
71288;SDS011;59068;52.502;9.860;2023-10-31T14:29:01;1.30;;;0.73;;
71288;SDS011;59068;52.502;9.860;2023-10-31T14:31:28;1.00;;;0.20;;
71288;SDS011;59068;52.502;9.860;2023-10-31T14:33:54;1.47;;;0.60;;
71288;SDS011;59068;52.502;9.860;2023-10-31T14:36:24;1.00;;;0.50;;
71288;SDS011;59068;52.502;9.860;2023-10-31T14:38:50;1.43;;;0.40;;
71288;SDS011;59068;52.502;9.860;2023-10-31T14:41:17;0.77;;;0.60;;
71288;SDS011;59068;52.502;9.860;2023-10-31T14:43:43;0.63;;;0.50;;
71288;SDS011;59068;52.502;9.860;2023-10-31T14:46:10;0.80;;;0.30;;
71288;SDS011;59068;52.502;9.860;2023-10-31T14:48:36;1.10;;;0.57;;